Accueil
METAR-TAF:

METAR-TAF

Aéroports :

Aéroport international Angoulême-Cognac

Angoulême, France

latitude: 45-43-46N, longitude: 00-13-08E, altitude: 132 m

Observation

Le bulletin a été fait il y a 21 minutes, à 19:00 UTC
Vent 4 kt de nord/nord-est
Température 28°C
Humidité 55%
Pression 1017 hPa
Visibilité 10 km ou plus
pas de nuages en-dessous de 1500 mètres et pas de cumulonimbus.

METAR: LFBU 201900Z AUTO 03004KT CAVOK 28/18 Q1017 NOSIG

Heure: 21:21 (19:21 UTC)

Prévision

Le bulletin a été fait il y a 2 heures et 21 minutes, à 17:00 UTC
Prévision valable du 20 à 18 UTC au 21 à 18 UTC
Vent 8 kt de nord/nord-est
Visibilité 10 km ou plus
pas de nuages en-dessous de 1500 mètres et pas de cumulonimbus.

TAF: LFBU 201700Z 2018/2118 03008KT CAVOK

Observations et prévisions météorologiques de plus de 4000 aéroports (messages METAR et TAF).

Les stations disponibles sont représentées par des disques jaunes et rouges sur la carte.

Passer la souris dessus pour voir le nom de la station.

Cliquer dessus pour voir les observations et prévisions météorologiques.

Pour changer de carte: cliquez sur les boutons verts avec une croix noire pour zoomer, sur le bouton vert avec un tiret pour effectuer un zoom arrière, ou sur les flèches vertes pour les cartes adjacentes.


METAR-TAF: